sensor_id;sensor_type;location;lat;lon;timestamp;P1;durP1;ratioP1;P2;durP2;ratioP2
77775;SDS011;66965;43.328;6.668;2023-07-13T00:02:17;17.42;;;8.13;;
77775;SDS011;66965;43.328;6.668;2023-07-13T00:04:42;17.00;;;8.02;;
77775;SDS011;66965;43.328;6.668;2023-07-13T00:07:08;16.10;;;8.00;;
77775;SDS011;66965;43.328;6.668;2023-07-13T00:09:34;20.65;;;8.07;;
77775;SDS011;66965;43.328;6.668;2023-07-13T00:14:26;15.13;;;6.90;;
77775;SDS011;66965;43.328;6.668;2023-07-13T00:16:53;15.18;;;6.88;;
77775;SDS011;66965;43.328;6.668;2023-07-13T00:19:18;10.77;;;7.05;;
77775;SDS011;66965;43.328;6.668;2023-07-13T00:21:44;15.48;;;7.15;;
77775;SDS011;66965;43.328;6.668;2023-07-13T00:24:13;15.73;;;6.68;;
77775;SDS011;66965;43.328;6.668;2023-07-13T00:26:41;16.08;;;6.53;;
77775;SDS011;66965;43.328;6.668;2023-07-13T00:29:09;16.33;;;7.30;;
77775;SDS011;66965;43.328;6.668;2023-07-13T00:31:35;12.80;;;6.10;;
77775;SDS011;66965;43.328;6.668;2023-07-13T00:34:01;13.93;;;6.65;;
77775;SDS011;66965;43.328;6.668;2023-07-13T00:38:52;20.00;;;6.97;;
77775;SDS011;66965;43.328;6.668;2023-07-13T00:41:18;16.05;;;6.97;;
77775;SDS011;66965;43.328;6.668;2023-07-13T00:43:44;21.58;;;7.82;;
77775;SDS011;66965;43.328;6.668;2023-07-13T00:46:12;15.95;;;7.35;;
77775;SDS011;66965;43.328;6.668;2023-07-13T00:48:44;18.00;;;7.13;;
77775;SDS011;66965;43.328;6.668;2023-07-13T00:51:12;16.40;;;7.10;;
77775;SDS011;66965;43.328;6.668;2023-07-13T00:53:39;17.25;;;7.75;;
77775;SDS011;66965;43.328;6.668;2023-07-13T00:56:05;16.85;;;6.90;;
77775;SDS011;66965;43.328;6.668;2023-07-13T00:58:31;16.70;;;8.63;;
77775;SDS011;66965;43.328;6.668;2023-07-13T01:00:58;16.40;;;8.05;;
77775;SDS011;66965;43.328;6.668;2023-07-13T01:03:23;19.23;;;7.43;;
77775;SDS011;66965;43.328;6.668;2023-07-13T01:05:49;15.05;;;6.72;;
77775;SDS011;66965;43.328;6.668;2023-07-13T01:08:15;15.20;;;6.18;;
77775;SDS011;66965;43.328;6.668;2023-07-13T01:10:41;20.80;;;8.18;;
77775;SDS011;66965;43.328;6.668;2023-07-13T01:13:15;22.10;;;9.35;;
77775;SDS011;66965;43.328;6.668;2023-07-13T01:15:44;17.30;;;8.05;;
77775;SDS011;66965;43.328;6.668;2023-07-13T01:20:50;19.00;;;7.95;;
77775;SDS011;66965;43.328;6.668;2023-07-13T01:23:23;18.63;;;9.10;;
77775;SDS011;66965;43.328;6.668;2023-07-13T01:25:50;16.80;;;6.88;;
77775;SDS011;66965;43.328;6.668;2023-07-13T01:28:16;18.63;;;7.22;;
77775;SDS011;66965;43.328;6.668;2023-07-13T01:30:42;15.75;;;8.13;;
77775;SDS011;66965;43.328;6.668;2023-07-13T01:33:11;20.70;;;8.18;;
77775;SDS011;66965;43.328;6.668;2023-07-13T01:35:37;19.15;;;9.20;;
77775;SDS011;66965;43.328;6.668;2023-07-13T01:38:03;17.10;;;8.77;;
77775;SDS011;66965;43.328;6.668;2023-07-13T01:40:30;21.58;;;7.50;;
77775;SDS011;66965;43.328;6.668;2023-07-13T01:42:55;15.77;;;8.60;;
77775;SDS011;66965;43.328;6.668;2023-07-13T01:45:21;18.52;;;8.20;;
77775;SDS011;66965;43.328;6.668;2023-07-13T01:47:46;14.32;;;7.43;;
77775;SDS011;66965;43.328;6.668;2023-07-13T01:50:12;18.63;;;8.77;;
77775;SDS011;66965;43.328;6.668;2023-07-13T01:52:37;18.17;;;8.95;;
77775;SDS011;66965;43.328;6.668;2023-07-13T01:55:03;16.20;;;9.38;;
77775;SDS011;66965;43.328;6.668;2023-07-13T01:57:28;16.70;;;9.40;;
77775;SDS011;66965;43.328;6.668;2023-07-13T01:59:54;21.30;;;9.05;;
77775;SDS011;66965;43.328;6.668;2023-07-13T02:02:19;17.92;;;8.57;;
77775;SDS011;66965;43.328;6.668;2023-07-13T02:04:45;19.90;;;9.30;;
77775;SDS011;66965;43.328;6.668;2023-07-13T02:07:10;14.98;;;7.40;;
77775;SDS011;66965;43.328;6.668;2023-07-13T02:09:36;17.40;;;9.73;;
77775;SDS011;66965;43.328;6.668;2023-07-13T02:12:01;15.90;;;8.77;;
77775;SDS011;66965;43.328;6.668;2023-07-13T02:14:27;16.75;;;9.43;;
77775;SDS011;66965;43.328;6.668;2023-07-13T02:16:52;20.15;;;9.40;;
77775;SDS011;66965;43.328;6.668;2023-07-13T02:19:17;23.80;;;10.98;;
77775;SDS011;66965;43.328;6.668;2023-07-13T02:21:43;18.55;;;8.82;;
77775;SDS011;66965;43.328;6.668;2023-07-13T02:24:08;17.08;;;7.88;;
77775;SDS011;66965;43.328;6.668;2023-07-13T02:26:34;14.25;;;8.15;;
77775;SDS011;66965;43.328;6.668;2023-07-13T02:28:59;17.73;;;8.95;;
77775;SDS011;66965;43.328;6.668;2023-07-13T02:31:25;17.60;;;9.02;;
77775;SDS011;66965;43.328;6.668;2023-07-13T02:33:51;14.27;;;8.48;;
77775;SDS011;66965;43.328;6.668;2023-07-13T02:36:16;17.30;;;8.30;;
77775;SDS011;66965;43.328;6.668;2023-07-13T02:38:43;17.30;;;9.18;;
77775;SDS011;66965;43.328;6.668;2023-07-13T02:41:09;18.23;;;8.70;;
77775;SDS011;66965;43.328;6.668;2023-07-13T02:43:34;15.57;;;7.68;;
77775;SDS011;66965;43.328;6.668;2023-07-13T02:46:01;16.88;;;8.00;;
77775;SDS011;66965;43.328;6.668;2023-07-13T02:48:32;15.23;;;7.80;;
77775;SDS011;66965;43.328;6.668;2023-07-13T02:50:58;14.52;;;7.53;;
77775;SDS011;66965;43.328;6.668;2023-07-13T02:53:24;17.00;;;8.38;;
77775;SDS011;66965;43.328;6.668;2023-07-13T02:55:49;13.00;;;7.65;;
77775;SDS011;66965;43.328;6.668;2023-07-13T02:58:15;14.82;;;8.13;;
77775;SDS011;66965;43.328;6.668;2023-07-13T03:00:44;18.42;;;8.10;;
77775;SDS011;66965;43.328;6.668;2023-07-13T03:03:11;19.52;;;8.95;;
77775;SDS011;66965;43.328;6.668;2023-07-13T03:05:39;17.65;;;7.82;;
77775;SDS011;66965;43.328;6.668;2023-07-13T03:08:07;16.50;;;8.73;;
77775;SDS011;66965;43.328;6.668;2023-07-13T03:10:33;19.48;;;10.25;;
77775;SDS011;66965;43.328;6.668;2023-07-13T03:12:58;16.02;;;8.23;;
77775;SDS011;66965;43.328;6.668;2023-07-13T03:15:24;15.85;;;8.05;;
77775;SDS011;66965;43.328;6.668;2023-07-13T03:17:49;16.08;;;9.00;;
77775;SDS011;66965;43.328;6.668;2023-07-13T03:20:15;15.82;;;7.57;;
77775;SDS011;66965;43.328;6.668;2023-07-13T03:22:40;17.77;;;8.27;;
77775;SDS011;66965;43.328;6.668;2023-07-13T03:27:32;20.27;;;7.72;;
77775;SDS011;66965;43.328;6.668;2023-07-13T03:29:57;18.58;;;8.32;;
77775;SDS011;66965;43.328;6.668;2023-07-13T03:32:23;21.42;;;7.85;;
77775;SDS011;66965;43.328;6.668;2023-07-13T03:34:48;13.95;;;7.75;;
77775;SDS011;66965;43.328;6.668;2023-07-13T03:37:13;13.52;;;7.88;;
77775;SDS011;66965;43.328;6.668;2023-07-13T03:39:39;18.55;;;6.97;;
77775;SDS011;66965;43.328;6.668;2023-07-13T03:42:05;19.33;;;7.55;;
77775;SDS011;66965;43.328;6.668;2023-07-13T03:44:30;13.73;;;7.82;;
77775;SDS011;66965;43.328;6.668;2023-07-13T03:46:56;16.35;;;6.90;;
77775;SDS011;66965;43.328;6.668;2023-07-13T03:49:21;15.70;;;6.68;;
77775;SDS011;66965;43.328;6.668;2023-07-13T03:51:47;16.23;;;7.80;;
77775;SDS011;66965;43.328;6.668;2023-07-13T03:54:12;16.95;;;6.95;;
77775;SDS011;66965;43.328;6.668;2023-07-13T03:56:38;15.80;;;7.75;;
77775;SDS011;66965;43.328;6.668;2023-07-13T03:59:03;14.50;;;7.25;;
77775;SDS011;66965;43.328;6.668;2023-07-13T04:01:29;16.70;;;7.45;;
77775;SDS011;66965;43.328;6.668;2023-07-13T04:03:55;19.17;;;6.97;;
77775;SDS011;66965;43.328;6.668;2023-07-13T04:06:21;14.88;;;8.13;;
77775;SDS011;66965;43.328;6.668;2023-07-13T04:08:55;13.45;;;7.78;;
77775;SDS011;66965;43.328;6.668;2023-07-13T04:11:23;19.25;;;8.30;;
77775;SDS011;66965;43.328;6.668;2023-07-13T04:13:50;16.30;;;8.13;;
77775;SDS011;66965;43.328;6.668;2023-07-13T04:16:17;18.27;;;8.07;;
77775;SDS011;66965;43.328;6.668;2023-07-13T04:18:43;12.48;;;6.65;;
77775;SDS011;66965;43.328;6.668;2023-07-13T04:21:09;15.20;;;6.47;;
77775;SDS011;66965;43.328;6.668;2023-07-13T04:23:35;11.55;;;6.63;;
77775;SDS011;66965;43.328;6.668;2023-07-13T04:26:02;16.55;;;6.63;;
77775;SDS011;66965;43.328;6.668;2023-07-13T04:28:28;18.15;;;7.22;;
77775;SDS011;66965;43.328;6.668;2023-07-13T04:30:54;11.90;;;7.03;;
77775;SDS011;66965;43.328;6.668;2023-07-13T04:33:20;14.25;;;8.00;;
77775;SDS011;66965;43.328;6.668;2023-07-13T04:35:49;11.13;;;6.75;;
77775;SDS011;66965;43.328;6.668;2023-07-13T04:38:19;19.33;;;7.65;;
77775;SDS011;66965;43.328;6.668;2023-07-13T04:43:11;14.10;;;6.25;;
77775;SDS011;66965;43.328;6.668;2023-07-13T04:48:12;17.00;;;7.00;;
77775;SDS011;66965;43.328;6.668;2023-07-13T04:50:37;12.10;;;6.38;;
77775;SDS011;66965;43.328;6.668;2023-07-13T04:53:03;14.00;;;6.68;;
77775;SDS011;66965;43.328;6.668;2023-07-13T04:55:29;14.60;;;6.70;;
77775;SDS011;66965;43.328;6.668;2023-07-13T04:57:55;12.52;;;5.82;;
77775;SDS011;66965;43.328;6.668;2023-07-13T05:00:21;12.98;;;5.70;;
77775;SDS011;66965;43.328;6.668;2023-07-13T05:02:46;14.18;;;5.97;;
77775;SDS011;66965;43.328;6.668;2023-07-13T05:05:12;12.07;;;6.20;;
77775;SDS011;66965;43.328;6.668;2023-07-13T05:07:38;14.60;;;6.68;;
77775;SDS011;66965;43.328;6.668;2023-07-13T05:10:03;12.32;;;6.10;;
77775;SDS011;66965;43.328;6.668;2023-07-13T05:12:30;16.45;;;7.38;;
77775;SDS011;66965;43.328;6.668;2023-07-13T05:14:55;9.02;;;6.95;;
77775;SDS011;66965;43.328;6.668;2023-07-13T05:17:21;12.43;;;6.10;;
77775;SDS011;66965;43.328;6.668;2023-07-13T05:19:47;19.17;;;7.35;;
77775;SDS011;66965;43.328;6.668;2023-07-13T05:22:12;15.63;;;7.22;;
77775;SDS011;66965;43.328;6.668;2023-07-13T05:24:38;10.38;;;5.40;;
77775;SDS011;66965;43.328;6.668;2023-07-13T05:27:03;14.45;;;6.30;;
77775;SDS011;66965;43.328;6.668;2023-07-13T05:29:29;11.90;;;6.05;;
77775;SDS011;66965;43.328;6.668;2023-07-13T05:31:55;11.25;;;5.13;;
77775;SDS011;66965;43.328;6.668;2023-07-13T05:34:20;12.13;;;5.82;;
77775;SDS011;66965;43.328;6.668;2023-07-13T05:36:46;12.00;;;5.68;;
77775;SDS011;66965;43.328;6.668;2023-07-13T05:39:11;12.40;;;4.80;;
77775;SDS011;66965;43.328;6.668;2023-07-13T05:41:37;12.07;;;5.68;;
77775;SDS011;66965;43.328;6.668;2023-07-13T05:44:02;13.02;;;5.75;;
77775;SDS011;66965;43.328;6.668;2023-07-13T05:46:28;11.95;;;6.00;;
77775;SDS011;66965;43.328;6.668;2023-07-13T05:48:53;10.15;;;4.78;;
77775;SDS011;66965;43.328;6.668;2023-07-13T05:51:19;10.07;;;4.90;;
77775;SDS011;66965;43.328;6.668;2023-07-13T05:53:45;9.02;;;5.53;;
77775;SDS011;66965;43.328;6.668;2023-07-13T05:56:10;10.23;;;5.20;;
77775;SDS011;66965;43.328;6.668;2023-07-13T05:58:36;13.60;;;4.93;;
77775;SDS011;66965;43.328;6.668;2023-07-13T06:01:03;13.50;;;5.45;;
77775;SDS011;66965;43.328;6.668;2023-07-13T06:03:30;8.02;;;4.35;;
77775;SDS011;66965;43.328;6.668;2023-07-13T06:05:56;8.57;;;4.35;;
77775;SDS011;66965;43.328;6.668;2023-07-13T06:08:21;9.93;;;5.45;;
77775;SDS011;66965;43.328;6.668;2023-07-13T06:10:47;10.93;;;5.00;;
77775;SDS011;66965;43.328;6.668;2023-07-13T06:13:12;12.23;;;5.25;;
77775;SDS011;66965;43.328;6.668;2023-07-13T06:15:38;10.27;;;5.60;;
77775;SDS011;66965;43.328;6.668;2023-07-13T06:18:03;9.57;;;4.55;;
77775;SDS011;66965;43.328;6.668;2023-07-13T06:20:29;7.78;;;4.88;;
77775;SDS011;66965;43.328;6.668;2023-07-13T06:22:54;8.88;;;5.07;;
77775;SDS011;66965;43.328;6.668;2023-07-13T06:25:20;13.23;;;5.15;;
77775;SDS011;66965;43.328;6.668;2023-07-13T06:27:45;10.48;;;5.05;;
77775;SDS011;66965;43.328;6.668;2023-07-13T06:30:11;11.40;;;5.25;;
77775;SDS011;66965;43.328;6.668;2023-07-13T06:32:37;9.32;;;4.43;;
77775;SDS011;66965;43.328;6.668;2023-07-13T06:35:03;9.40;;;4.75;;
77775;SDS011;66965;43.328;6.668;2023-07-13T06:37:28;12.63;;;5.25;;
77775;SDS011;66965;43.328;6.668;2023-07-13T06:39:54;10.38;;;4.43;;
77775;SDS011;66965;43.328;6.668;2023-07-13T06:42:20;13.05;;;4.32;;
77775;SDS011;66965;43.328;6.668;2023-07-13T06:44:45;7.63;;;4.70;;
77775;SDS011;66965;43.328;6.668;2023-07-13T06:47:11;11.23;;;4.60;;
77775;SDS011;66965;43.328;6.668;2023-07-13T06:49:36;11.90;;;4.20;;
77775;SDS011;66965;43.328;6.668;2023-07-13T06:52:02;10.95;;;3.85;;
77775;SDS011;66965;43.328;6.668;2023-07-13T06:54:28;10.80;;;4.50;;
77775;SDS011;66965;43.328;6.668;2023-07-13T06:59:19;9.47;;;4.47;;
77775;SDS011;66965;43.328;6.668;2023-07-13T07:04:09;11.10;;;3.60;;
77775;SDS011;66965;43.328;6.668;2023-07-13T07:09:00;9.27;;;4.22;;
77775;SDS011;66965;43.328;6.668;2023-07-13T07:13:51;9.47;;;4.47;;
77775;SDS011;66965;43.328;6.668;2023-07-13T07:16:18;7.28;;;4.00;;
77775;SDS011;66965;43.328;6.668;2023-07-13T07:18:45;7.40;;;3.95;;
77775;SDS011;66965;43.328;6.668;2023-07-13T07:21:10;8.88;;;4.03;;
77775;SDS011;66965;43.328;6.668;2023-07-13T07:26:02;10.13;;;4.03;;
77775;SDS011;66965;43.328;6.668;2023-07-13T07:28:28;6.72;;;4.20;;
77775;SDS011;66965;43.328;6.668;2023-07-13T07:30:55;18.40;;;4.57;;
77775;SDS011;66965;43.328;6.668;2023-07-13T07:33:22;7.32;;;3.78;;
77775;SDS011;66965;43.328;6.668;2023-07-13T07:35:47;8.15;;;4.35;;
77775;SDS011;66965;43.328;6.668;2023-07-13T07:38:13;8.10;;;4.60;;
77775;SDS011;66965;43.328;6.668;2023-07-13T07:43:05;8.00;;;4.38;;
77775;SDS011;66965;43.328;6.668;2023-07-13T07:45:31;7.22;;;4.30;;
77775;SDS011;66965;43.328;6.668;2023-07-13T07:47:56;8.50;;;3.92;;
77775;SDS011;66965;43.328;6.668;2023-07-13T07:50:24;9.50;;;4.15;;
77775;SDS011;66965;43.328;6.668;2023-07-13T07:52:50;7.20;;;3.83;;
77775;SDS011;66965;43.328;6.668;2023-07-13T07:55:16;8.18;;;3.92;;
77775;SDS011;66965;43.328;6.668;2023-07-13T07:57:41;8.02;;;4.70;;
77775;SDS011;66965;43.328;6.668;2023-07-13T08:00:07;11.35;;;4.45;;
77775;SDS011;66965;43.328;6.668;2023-07-13T08:02:33;10.32;;;3.83;;
77775;SDS011;66965;43.328;6.668;2023-07-13T08:04:58;8.55;;;4.20;;
77775;SDS011;66965;43.328;6.668;2023-07-13T08:07:24;8.35;;;3.85;;
77775;SDS011;66965;43.328;6.668;2023-07-13T08:09:51;6.97;;;4.32;;
77775;SDS011;66965;43.328;6.668;2023-07-13T08:12:18;10.77;;;4.57;;
77775;SDS011;66965;43.328;6.668;2023-07-13T08:14:43;10.88;;;4.07;;
77775;SDS011;66965;43.328;6.668;2023-07-13T08:19:34;6.97;;;3.97;;
77775;SDS011;66965;43.328;6.668;2023-07-13T08:21:59;8.70;;;4.30;;
77775;SDS011;66965;43.328;6.668;2023-07-13T08:24:24;8.73;;;4.63;;
77775;SDS011;66965;43.328;6.668;2023-07-13T08:26:50;7.28;;;3.90;;
77775;SDS011;66965;43.328;6.668;2023-07-13T08:29:16;7.85;;;4.28;;
77775;SDS011;66965;43.328;6.668;2023-07-13T08:31:41;6.88;;;3.53;;
77775;SDS011;66965;43.328;6.668;2023-07-13T08:34:07;10.18;;;3.80;;
77775;SDS011;66965;43.328;6.668;2023-07-13T08:36:32;6.82;;;3.67;;
77775;SDS011;66965;43.328;6.668;2023-07-13T08:38:58;7.97;;;3.67;;
77775;SDS011;66965;43.328;6.668;2023-07-13T08:41:23;11.80;;;3.72;;
77775;SDS011;66965;43.328;6.668;2023-07-13T08:43:51;6.80;;;4.18;;
77775;SDS011;66965;43.328;6.668;2023-07-13T08:46:25;6.40;;;4.00;;
77775;SDS011;66965;43.328;6.668;2023-07-13T08:49:01;11.18;;;4.18;;
77775;SDS011;66965;43.328;6.668;2023-07-13T08:54:01;6.30;;;3.78;;
77775;SDS011;66965;43.328;6.668;2023-07-13T08:56:37;8.20;;;3.63;;
77775;SDS011;66965;43.328;6.668;2023-07-13T08:59:05;8.75;;;3.90;;
77775;SDS011;66965;43.328;6.668;2023-07-13T09:10:32;6.65;;;3.45;;
77775;SDS011;66965;43.328;6.668;2023-07-13T09:15:51;9.73;;;4.35;;
77775;SDS011;66965;43.328;6.668;2023-07-13T09:21:08;47.00;;;7.38;;
77775;SDS011;66965;43.328;6.668;2023-07-13T09:23:37;6.97;;;4.00;;
77775;SDS011;66965;43.328;6.668;2023-07-13T09:26:05;13.77;;;3.75;;
77775;SDS011;66965;43.328;6.668;2023-07-13T09:28:40;8.63;;;3.67;;
77775;SDS011;66965;43.328;6.668;2023-07-13T09:31:15;6.43;;;3.65;;
77775;SDS011;66965;43.328;6.668;2023-07-13T09:33:44;9.38;;;4.28;;
77775;SDS011;66965;43.328;6.668;2023-07-13T09:46:38;6.45;;;3.85;;
77775;SDS011;66965;43.328;6.668;2023-07-13T09:49:09;5.95;;;4.00;;
77775;SDS011;66965;43.328;6.668;2023-07-13T09:51:36;15.05;;;4.43;;
77775;SDS011;66965;43.328;6.668;2023-07-13T09:54:03;8.98;;;4.30;;
77775;SDS011;66965;43.328;6.668;2023-07-13T09:56:28;10.20;;;3.95;;
77775;SDS011;66965;43.328;6.668;2023-07-13T09:58:54;10.65;;;3.95;;
77775;SDS011;66965;43.328;6.668;2023-07-13T10:01:35;7.80;;;4.10;;
77775;SDS011;66965;43.328;6.668;2023-07-13T10:04:02;7.53;;;3.67;;
77775;SDS011;66965;43.328;6.668;2023-07-13T10:06:35;7.05;;;4.20;;
77775;SDS011;66965;43.328;6.668;2023-07-13T10:09:01;8.20;;;4.18;;
77775;SDS011;66965;43.328;6.668;2023-07-13T10:11:28;8.15;;;4.18;;
77775;SDS011;66965;43.328;6.668;2023-07-13T10:13:59;8.43;;;3.53;;
77775;SDS011;66965;43.328;6.668;2023-07-13T10:16:31;6.03;;;3.33;;
77775;SDS011;66965;43.328;6.668;2023-07-13T10:18:59;6.38;;;3.70;;
77775;SDS011;66965;43.328;6.668;2023-07-13T10:21:38;6.20;;;4.13;;
77775;SDS011;66965;43.328;6.668;2023-07-13T10:27:10;6.40;;;3.60;;
77775;SDS011;66965;43.328;6.668;2023-07-13T10:29:52;7.97;;;3.67;;
77775;SDS011;66965;43.328;6.668;2023-07-13T10:32:21;6.13;;;3.60;;
77775;SDS011;66965;43.328;6.668;2023-07-13T10:34:49;7.30;;;3.33;;
77775;SDS011;66965;43.328;6.668;2023-07-13T10:37:22;10.18;;;3.65;;
77775;SDS011;66965;43.328;6.668;2023-07-13T10:39:50;8.70;;;3.67;;
77775;SDS011;66965;43.328;6.668;2023-07-13T10:42:25;5.90;;;3.58;;
77775;SDS011;66965;43.328;6.668;2023-07-13T10:44:54;11.95;;;3.85;;
77775;SDS011;66965;43.328;6.668;2023-07-13T10:47:19;6.60;;;3.75;;
77775;SDS011;66965;43.328;6.668;2023-07-13T10:49:53;6.03;;;2.95;;
77775;SDS011;66965;43.328;6.668;2023-07-13T10:52:40;8.07;;;3.40;;
77775;SDS011;66965;43.328;6.668;2023-07-13T10:57:59;5.95;;;2.97;;
77775;SDS011;66965;43.328;6.668;2023-07-13T11:00:26;6.05;;;3.55;;
77775;SDS011;66965;43.328;6.668;2023-07-13T11:02:56;10.00;;;3.95;;
77775;SDS011;66965;43.328;6.668;2023-07-13T11:05:30;7.18;;;3.67;;
77775;SDS011;66965;43.328;6.668;2023-07-13T11:08:32;7.60;;;3.40;;
77775;SDS011;66965;43.328;6.668;2023-07-13T11:10:55;8.77;;;3.15;;
77775;SDS011;66965;43.328;6.668;2023-07-13T11:18:49;5.53;;;2.72;;
77775;SDS011;66965;43.328;6.668;2023-07-13T11:21:16;6.50;;;2.70;;
77775;SDS011;66965;43.328;6.668;2023-07-13T11:24:01;6.45;;;3.15;;
77775;SDS011;66965;43.328;6.668;2023-07-13T11:29:08;7.63;;;3.58;;
77775;SDS011;66965;43.328;6.668;2023-07-13T11:31:40;7.90;;;3.10;;
77775;SDS011;66965;43.328;6.668;2023-07-13T11:34:11;8.52;;;3.72;;
77775;SDS011;66965;43.328;6.668;2023-07-13T11:36:39;6.40;;;3.33;;
77775;SDS011;66965;43.328;6.668;2023-07-13T11:41:52;5.22;;;2.92;;
77775;SDS011;66965;43.328;6.668;2023-07-13T11:44:22;4.88;;;3.28;;
77775;SDS011;66965;43.328;6.668;2023-07-13T11:46:53;7.07;;;3.30;;
77775;SDS011;66965;43.328;6.668;2023-07-13T11:49:21;15.25;;;4.07;;
77775;SDS011;66965;43.328;6.668;2023-07-13T11:51:49;8.15;;;3.40;;
77775;SDS011;66965;43.328;6.668;2023-07-13T11:56:54;5.28;;;2.97;;
77775;SDS011;66965;43.328;6.668;2023-07-13T11:59:31;6.10;;;2.85;;
77775;SDS011;66965;43.328;6.668;2023-07-13T12:01:58;4.30;;;2.58;;
77775;SDS011;66965;43.328;6.668;2023-07-13T12:07:15;6.43;;;2.80;;
77775;SDS011;66965;43.328;6.668;2023-07-13T12:09:42;4.20;;;2.60;;
77775;SDS011;66965;43.328;6.668;2023-07-13T12:12:16;5.97;;;2.85;;
77775;SDS011;66965;43.328;6.668;2023-07-13T12:14:44;5.30;;;2.53;;
77775;SDS011;66965;43.328;6.668;2023-07-13T12:17:15;6.78;;;3.08;;
77775;SDS011;66965;43.328;6.668;2023-07-13T12:19:43;7.80;;;3.00;;
77775;SDS011;66965;43.328;6.668;2023-07-13T12:22:09;6.60;;;3.17;;
77775;SDS011;66965;43.328;6.668;2023-07-13T12:24:37;12.82;;;3.65;;
77775;SDS011;66965;43.328;6.668;2023-07-13T12:27:05;6.28;;;2.58;;
77775;SDS011;66965;43.328;6.668;2023-07-13T12:29:33;5.13;;;2.45;;
77775;SDS011;66965;43.328;6.668;2023-07-13T12:31:59;4.40;;;2.53;;
77775;SDS011;66965;43.328;6.668;2023-07-13T12:34:25;8.15;;;2.70;;
77775;SDS011;66965;43.328;6.668;2023-07-13T12:36:52;6.07;;;2.67;;
77775;SDS011;66965;43.328;6.668;2023-07-13T12:42:24;4.60;;;2.40;;
77775;SDS011;66965;43.328;6.668;2023-07-13T12:45:39;8.18;;;2.33;;
77775;SDS011;66965;43.328;6.668;2023-07-13T12:47:47;4.43;;;2.20;;
77775;SDS011;66965;43.328;6.668;2023-07-13T12:50:15;4.45;;;2.40;;
77775;SDS011;66965;43.328;6.668;2023-07-13T12:52:43;7.90;;;2.60;;
77775;SDS011;66965;43.328;6.668;2023-07-13T12:55:13;5.13;;;2.65;;
77775;SDS011;66965;43.328;6.668;2023-07-13T12:57:55;7.25;;;2.13;;
77775;SDS011;66965;43.328;6.668;2023-07-13T13:02:54;5.68;;;2.30;;
77775;SDS011;66965;43.328;6.668;2023-07-13T13:05:21;4.93;;;2.10;;
77775;SDS011;66965;43.328;6.668;2023-07-13T13:07:50;4.25;;;2.30;;
77775;SDS011;66965;43.328;6.668;2023-07-13T13:10:15;8.43;;;2.97;;
77775;SDS011;66965;43.328;6.668;2023-07-13T13:12:41;8.07;;;2.65;;
77775;SDS011;66965;43.328;6.668;2023-07-13T13:15:10;7.03;;;2.90;;
77775;SDS011;66965;43.328;6.668;2023-07-13T13:17:36;4.25;;;2.10;;
77775;SDS011;66965;43.328;6.668;2023-07-13T13:20:13;5.47;;;1.98;;
77775;SDS011;66965;43.328;6.668;2023-07-13T13:22:41;4.20;;;2.38;;
77775;SDS011;66965;43.328;6.668;2023-07-13T13:25:09;4.13;;;1.92;;
77775;SDS011;66965;43.328;6.668;2023-07-13T13:27:35;5.60;;;2.28;;
77775;SDS011;66965;43.328;6.668;2023-07-13T13:30:02;8.55;;;2.40;;
77775;SDS011;66965;43.328;6.668;2023-07-13T13:32:27;6.65;;;2.10;;
77775;SDS011;66965;43.328;6.668;2023-07-13T13:34:53;7.40;;;2.80;;
77775;SDS011;66965;43.328;6.668;2023-07-13T13:39:46;6.43;;;3.35;;
77775;SDS011;66965;43.328;6.668;2023-07-13T13:42:12;8.40;;;2.65;;
77775;SDS011;66965;43.328;6.668;2023-07-13T13:44:38;11.23;;;2.35;;
77775;SDS011;66965;43.328;6.668;2023-07-13T13:47:07;4.93;;;2.00;;
77775;SDS011;66965;43.328;6.668;2023-07-13T13:49:53;5.78;;;2.20;;
77775;SDS011;66965;43.328;6.668;2023-07-13T13:52:18;6.18;;;2.20;;
77775;SDS011;66965;43.328;6.668;2023-07-13T13:54:44;4.53;;;2.13;;
77775;SDS011;66965;43.328;6.668;2023-07-13T13:57:09;5.45;;;1.83;;
77775;SDS011;66965;43.328;6.668;2023-07-13T13:59:37;4.28;;;1.98;;
77775;SDS011;66965;43.328;6.668;2023-07-13T14:02:10;4.75;;;1.83;;
77775;SDS011;66965;43.328;6.668;2023-07-13T14:07:13;7.28;;;2.08;;
77775;SDS011;66965;43.328;6.668;2023-07-13T14:09:38;3.90;;;1.60;;
77775;SDS011;66965;43.328;6.668;2023-07-13T14:12:04;3.88;;;1.85;;
77775;SDS011;66965;43.328;6.668;2023-07-13T14:14:30;6.35;;;2.22;;
77775;SDS011;66965;43.328;6.668;2023-07-13T14:16:57;3.90;;;1.70;;
77775;SDS011;66965;43.328;6.668;2023-07-13T14:19:23;5.15;;;1.80;;
77775;SDS011;66965;43.328;6.668;2023-07-13T14:21:49;3.95;;;1.50;;
77775;SDS011;66965;43.328;6.668;2023-07-13T14:24:14;3.72;;;1.80;;
77775;SDS011;66965;43.328;6.668;2023-07-13T14:26:41;5.40;;;1.48;;
77775;SDS011;66965;43.328;6.668;2023-07-13T14:29:15;4.45;;;1.92;;
77775;SDS011;66965;43.328;6.668;2023-07-13T14:31:43;4.88;;;1.85;;
77775;SDS011;66965;43.328;6.668;2023-07-13T14:34:11;4.55;;;1.95;;
77775;SDS011;66965;43.328;6.668;2023-07-13T14:36:40;4.97;;;1.73;;
77775;SDS011;66965;43.328;6.668;2023-07-13T14:39:12;5.25;;;1.73;;
77775;SDS011;66965;43.328;6.668;2023-07-13T14:41:42;3.53;;;1.60;;
77775;SDS011;66965;43.328;6.668;2023-07-13T14:44:15;6.15;;;1.60;;
77775;SDS011;66965;43.328;6.668;2023-07-13T14:46:42;7.57;;;1.70;;
77775;SDS011;66965;43.328;6.668;2023-07-13T14:51:58;4.35;;;1.40;;
77775;SDS011;66965;43.328;6.668;2023-07-13T14:54:26;3.35;;;1.40;;
77775;SDS011;66965;43.328;6.668;2023-07-13T14:56:52;4.45;;;1.95;;
77775;SDS011;66965;43.328;6.668;2023-07-13T14:59:17;3.60;;;1.35;;
77775;SDS011;66965;43.328;6.668;2023-07-13T15:01:46;4.13;;;1.60;;
77775;SDS011;66965;43.328;6.668;2023-07-13T15:04:13;4.40;;;1.40;;
77775;SDS011;66965;43.328;6.668;2023-07-13T15:06:56;3.63;;;1.55;;
77775;SDS011;66965;43.328;6.668;2023-07-13T15:09:24;4.40;;;1.55;;
77775;SDS011;66965;43.328;6.668;2023-07-13T15:11:54;3.53;;;1.58;;
77775;SDS011;66965;43.328;6.668;2023-07-13T15:14:21;4.15;;;1.38;;
77775;SDS011;66965;43.328;6.668;2023-07-13T15:16:47;4.25;;;1.55;;
77775;SDS011;66965;43.328;6.668;2023-07-13T15:19:16;6.70;;;2.13;;
77775;SDS011;66965;43.328;6.668;2023-07-13T15:21:43;5.28;;;1.70;;
77775;SDS011;66965;43.328;6.668;2023-07-13T15:24:10;4.57;;;1.48;;
77775;SDS011;66965;43.328;6.668;2023-07-13T15:26:36;3.05;;;1.40;;
77775;SDS011;66965;43.328;6.668;2023-07-13T15:29:02;7.35;;;1.42;;
77775;SDS011;66965;43.328;6.668;2023-07-13T15:31:28;3.85;;;1.42;;
77775;SDS011;66965;43.328;6.668;2023-07-13T15:33:55;5.30;;;1.67;;
77775;SDS011;66965;43.328;6.668;2023-07-13T15:36:22;5.28;;;1.42;;
77775;SDS011;66965;43.328;6.668;2023-07-13T15:38:51;3.83;;;1.40;;
77775;SDS011;66965;43.328;6.668;2023-07-13T15:41:19;11.48;;;2.00;;
77775;SDS011;66965;43.328;6.668;2023-07-13T15:43:47;5.28;;;1.60;;
77775;SDS011;66965;43.328;6.668;2023-07-13T15:46:16;4.53;;;1.38;;
77775;SDS011;66965;43.328;6.668;2023-07-13T15:48:43;7.80;;;1.70;;
77775;SDS011;66965;43.328;6.668;2023-07-13T15:51:10;5.65;;;1.48;;
77775;SDS011;66965;43.328;6.668;2023-07-13T15:53:42;5.22;;;1.30;;
77775;SDS011;66965;43.328;6.668;2023-07-13T15:56:20;4.15;;;1.40;;
77775;SDS011;66965;43.328;6.668;2023-07-13T15:58:47;5.10;;;1.42;;
77775;SDS011;66965;43.328;6.668;2023-07-13T16:01:14;5.10;;;1.77;;
77775;SDS011;66965;43.328;6.668;2023-07-13T16:03:40;4.20;;;1.83;;
77775;SDS011;66965;43.328;6.668;2023-07-13T16:06:13;8.40;;;1.92;;
77775;SDS011;66965;43.328;6.668;2023-07-13T16:08:41;4.65;;;1.80;;
77775;SDS011;66965;43.328;6.668;2023-07-13T16:11:12;3.60;;;1.45;;
77775;SDS011;66965;43.328;6.668;2023-07-13T16:13:42;3.15;;;1.20;;
77775;SDS011;66965;43.328;6.668;2023-07-13T16:16:10;4.40;;;1.52;;
77775;SDS011;66965;43.328;6.668;2023-07-13T16:18:37;4.60;;;1.40;;